03:02
Airports
History
Links
Donate
Help keep this website running!
PayPal
Bitcoin
This page is community maintained. The information is intended for PC simulator navigation or reference.
Always use approved charts for navigation.
MT73
Camas
Camas (MT73)
BONNER, Montana, United States (59823)
4
Lat/Lng:46° 51' 2.75" N / 113° 32' 15.31" W
46.850763 / -113.537587
Elevation:3870'ft / 1180mMSL
ID / ICAO:MT73
Runways:1
Longest:10-26
Grass 370m / 1,214ft
Nearby Weather02:53 GMT 2018-02-21
Nearby weather at KMSO, Missoula Intl located 26.5 nautical miles from MT73
Altimeter: 30.14
Visibility: 10.0 statute miles
Wind: 3 knots (from 260°)
Temp: -12°c / 10°f
Humidity: 66.2%

METAR: KMSO 210253Z 26003KT 10SM OVC055 M12/M17 A3014 RMK AO2 SLP275 T11171167 53006

(Powered by phpweather)
Nearby VORs <50NM
Nearby NDBs
Runway 10 / 26
Dimensions:370.1 x 9.1m 1214' x 30'ft
Surface:Grass
Runway 10 [A]Runway 26 [B]
Heading:116°TH 296°TH
Lat:
Lng:
46° 51' 5.44"N
113° 32' 23.03"W
46° 51' 0.06"N
113° 32' 7.59"W
User Notes and Comments
46° 51' 2.75" N / 113° 32' 15.31" W
Distance To
Airport ID:
Nearby Airports
(C) Rock Creek 10.3 NM
RC0 SSW 213°
(R) Buffalo Trail Ranch Strip 16.5 NM
MT16 NE 46°
(R) Black Canyon Ranch 20.5 NM
MT39 NNE 30°
4 Drummond 22.4 NM
KDRU SE 135°
4 Seeley Lake 23.3 NM
23S N 10°
(C) Missoula Intl 26.5 NM
KMSO ( WX ) W 279°
(R) Ckye Field 32.1 NM
MT32 SW 227°
VFR Chart
Flight Planning at SkyVector.com